createdAt,value
2022-08-17T00:01:36.340Z,31.25
2022-08-17T00:06:48.668Z,29.05
2022-08-17T00:09:18.344Z,29.52
2022-08-17T00:12:41.924Z,29.38
2022-08-17T00:14:36.282Z,28.50
2022-08-17T00:17:06.472Z,29.13
2022-08-17T00:19:34.061Z,27.48
2022-08-17T00:22:30.857Z,27.77
2022-08-17T00:24:50.374Z,26.65
2022-08-17T00:27:17.698Z,27.80
2022-08-17T00:29:45.887Z,27.83
2022-08-17T00:33:22.893Z,27.20
2022-08-17T00:35:05.767Z,26.23
2022-08-17T00:37:32.576Z,26.52
2022-08-17T00:39:59.595Z,25.70
2022-08-17T00:42:30.994Z,25.58
2022-08-17T00:44:58.615Z,25.27
2022-08-17T00:47:25.780Z,24.47
2022-08-17T00:49:53.022Z,24.17
2022-08-17T00:52:23.570Z,24.07
2022-08-17T00:54:53.987Z,23.13
2022-08-17T00:57:30.633Z,22.67
2022-08-17T01:00:03.797Z,22.25
2022-08-17T01:02:42.112Z,22.10
2022-08-17T01:05:19.452Z,22.27
2022-08-17T01:07:50.975Z,21.42
2022-08-17T01:11:00.476Z,20.90
2022-08-17T01:13:10.703Z,21.02
2022-08-17T01:18:08.599Z,21.20
2022-08-17T01:20:48.574Z,22.75
2022-08-17T01:23:20.791Z,20.60
2022-08-17T01:25:54.022Z,22.40
2022-08-17T01:28:53.138Z,21.40
2022-08-17T01:31:09.429Z,22.02
2022-08-17T01:36:06.890Z,21.00
2022-08-17T01:38:35.618Z,19.02
2022-08-17T01:41:06.904Z,19.33
2022-08-17T01:44:02.137Z,17.95
2022-08-17T01:46:33.439Z,17.63
2022-08-17T01:49:01.196Z,17.48
2022-08-17T01:51:32.855Z,17.33
2022-08-17T01:54:05.284Z,17.45
2022-08-17T01:56:34.183Z,16.17
2022-08-17T01:59:01.071Z,17.25
2022-08-17T02:01:30.094Z,15.68
2022-08-17T02:04:01.262Z,17.65
2022-08-17T02:06:52.410Z,16.58
2022-08-17T02:09:25.284Z,16.30
2022-08-17T02:11:57.150Z,16.85
2022-08-17T02:14:24.769Z,17.23
2022-08-17T02:16:52.473Z,16.40
2022-08-17T02:19:19.523Z,18.73
2022-08-17T02:21:48.188Z,20.10
2022-08-17T02:24:58.461Z,18.10
2022-08-17T02:27:07.043Z,20.17
2022-08-17T02:29:33.788Z,20.17
2022-08-17T02:32:01.788Z,21.42
2022-08-17T02:34:30.053Z,19.58
2022-08-17T02:36:56.797Z,19.63
2022-08-17T02:39:23.657Z,19.58
2022-08-17T02:41:50.583Z,18.25
2022-08-17T02:44:35.441Z,19.42
2022-08-17T02:47:04.239Z,19.10
2022-08-17T02:49:31.158Z,19.23
2022-08-17T02:51:58.776Z,18.95
2022-08-17T02:54:41.144Z,17.67
2022-08-17T02:57:10.856Z,18.75
2022-08-17T02:59:39.523Z,18.13
2022-08-17T03:02:08.519Z,18.13
2022-08-17T03:04:35.619Z,18.52
2022-08-17T03:07:03.566Z,18.10
2022-08-17T03:09:30.413Z,17.83
2022-08-17T03:12:28.716Z,17.73
2022-08-17T03:14:55.397Z,17.27
2022-08-17T03:17:22.098Z,16.65
2022-08-17T03:19:48.884Z,16.98
2022-08-17T03:22:36.955Z,17.40
2022-08-17T03:25:03.102Z,15.00
2022-08-17T03:27:30.719Z,15.98
2022-08-17T03:29:57.458Z,17.10
2022-08-17T03:32:24.167Z,16.65
2022-08-17T03:34:50.877Z,16.73
2022-08-17T03:37:17.591Z,16.48
2022-08-17T03:39:44.306Z,15.45
2022-08-17T03:42:32.224Z,16.67
2022-08-17T03:45:00.261Z,16.73
2022-08-17T03:47:45.766Z,15.85
2022-08-17T03:50:32.741Z,16.27
2022-08-17T03:53:18.737Z,15.33
2022-08-17T03:56:04.153Z,14.35
2022-08-17T03:58:30.937Z,14.43
2022-08-17T04:00:57.778Z,15.43
2022-08-17T04:03:24.459Z,15.77
2022-08-17T04:05:51.156Z,16.00
2022-08-17T04:08:17.846Z,16.65
2022-08-17T04:10:45.172Z,16.63
2022-08-17T04:13:12.565Z,17.50
2022-08-17T04:15:39.469Z,17.40
2022-08-17T04:18:07.609Z,17.55
2022-08-17T04:20:37.602Z,18.33
2022-08-17T04:23:11.964Z,18.25
2022-08-17T04:25:42.945Z,17.85
2022-08-17T04:28:15.985Z,17.85
2022-08-17T04:30:45.456Z,18.27
2022-08-17T04:33:26.469Z,19.48
2022-08-17T04:36:05.395Z,18.70
2022-08-17T04:38:35.337Z,20.40
2022-08-17T04:41:24.995Z,19.35
2022-08-17T04:43:56.005Z,19.92
2022-08-17T04:46:28.533Z,20.35
2022-08-17T04:48:57.593Z,20.90
2022-08-17T04:51:29.209Z,19.13
2022-08-17T04:53:59.880Z,20.52
2022-08-17T04:56:28.309Z,19.00
2022-08-17T04:59:01.294Z,18.83
2022-08-17T05:01:31.795Z,18.77
2022-08-17T05:04:20.749Z,16.92
2022-08-17T05:06:49.501Z,16.42
2022-08-17T05:09:17.521Z,15.60
2022-08-17T05:11:45.624Z,13.07
2022-08-17T05:16:39.585Z,11.20
2022-08-17T05:19:06.621Z,10.43
2022-08-17T05:21:33.381Z,7.90
2022-08-17T05:24:00.243Z,6.90
2022-08-17T05:26:28.806Z,7.47
2022-08-17T05:28:59.609Z,6.32
2022-08-17T05:31:29.379Z,5.60
2022-08-17T05:33:56.199Z,6.55
2022-08-17T05:36:42.332Z,5.10
2022-08-17T05:39:10.755Z,5.35
2022-08-17T05:41:43.481Z,4.38
2022-08-17T05:44:10.786Z,4.78
2022-08-17T05:46:41.742Z,5.22
2022-08-17T05:49:08.772Z,5.53
2022-08-17T05:52:08.421Z,4.72
2022-08-17T05:55:09.322Z,4.28
2022-08-17T05:57:47.649Z,4.57
2022-08-17T06:00:41.895Z,4.72
2022-08-17T06:03:40.050Z,4.00
2022-08-17T06:08:59.196Z,4.43
2022-08-17T06:11:37.382Z,4.65
2022-08-17T06:14:18.981Z,4.22
2022-08-17T06:16:50.709Z,4.55
2022-08-17T06:19:31.455Z,4.85
2022-08-17T06:21:59.933Z,4.85
2022-08-17T06:24:29.137Z,5.03
2022-08-17T06:27:06.136Z,4.70
2022-08-17T06:29:37.143Z,5.45
2022-08-17T06:32:08.478Z,4.65
2022-08-17T06:34:37.402Z,5.60
2022-08-17T06:37:31.082Z,5.03
2022-08-17T06:40:22.797Z,4.85
2022-08-17T06:43:07.070Z,5.25
2022-08-17T06:46:13.023Z,5.55
2022-08-17T06:48:42.615Z,5.68
2022-08-17T06:51:24.540Z,5.78
2022-08-17T06:54:05.550Z,5.97
2022-08-17T06:56:54.778Z,5.90
2022-08-17T06:59:55.150Z,5.43
2022-08-17T07:02:52.730Z,6.28
2022-08-17T07:05:24.217Z,6.68
2022-08-17T07:08:18.723Z,6.35
2022-08-17T07:11:00.576Z,6.25
2022-08-17T07:14:05.206Z,6.70
2022-08-17T07:16:51.325Z,7.68
2022-08-17T07:19:26.452Z,7.70
2022-08-17T07:22:01.641Z,7.95
2022-08-17T07:24:43.193Z,8.13
2022-08-17T07:27:27.485Z,9.32
2022-08-17T07:30:10.234Z,9.45
2022-08-17T07:32:46.929Z,9.50
2022-08-17T07:35:21.025Z,9.57
2022-08-17T07:38:25.725Z,10.75
2022-08-17T07:41:02.006Z,11.80
2022-08-17T07:43:40.993Z,11.23
2022-08-17T07:46:52.996Z,10.27
2022-08-17T07:49:34.726Z,10.10
2022-08-17T07:52:47.637Z,10.60
2022-08-17T07:55:34.944Z,9.73
2022-08-17T07:58:03.334Z,9.73
2022-08-17T08:00:32.043Z,9.52
2022-08-17T08:03:14.816Z,9.93
2022-08-17T08:05:56.148Z,11.05
2022-08-17T08:08:33.824Z,10.00
2022-08-17T08:11:02.504Z,10.38
2022-08-17T08:13:30.736Z,10.95
2022-08-17T08:18:54.943Z,11.80
2022-08-17T08:21:29.109Z,12.35
2022-08-17T08:24:00.759Z,12.02
2022-08-17T08:26:55.552Z,13.02
2022-08-17T08:29:28.451Z,13.23
2022-08-17T08:32:17.393Z,12.25
2022-08-17T08:35:06.575Z,12.25
2022-08-17T08:37:49.424Z,10.18
2022-08-17T08:40:27.824Z,8.77
2022-08-17T08:43:06.465Z,8.88
2022-08-17T08:45:56.456Z,8.70
2022-08-17T08:48:53.141Z,7.72
2022-08-17T08:51:46.560Z,8.07
2022-08-17T08:54:26.430Z,8.25
2022-08-17T08:57:23.207Z,7.90
2022-08-17T09:00:09.628Z,7.95
2022-08-17T09:03:03.026Z,7.97
2022-08-17T09:05:57.140Z,7.68
2022-08-17T09:08:42.595Z,7.22
2022-08-17T09:11:17.862Z,7.50
2022-08-17T09:13:44.516Z,7.43
2022-08-17T09:16:29.780Z,7.40
2022-08-17T09:19:23.259Z,6.50
2022-08-17T09:21:54.615Z,6.18
2022-08-17T09:25:00.003Z,6.00
2022-08-17T09:27:48.466Z,5.95
2022-08-17T09:30:15.286Z,6.45
2022-08-17T09:32:49.888Z,6.40
2022-08-17T09:35:20.042Z,6.30
2022-08-17T09:38:33.023Z,5.95
2022-08-17T09:41:34.693Z,6.47
2022-08-17T09:44:23.180Z,6.60
2022-08-17T09:47:17.346Z,6.07
2022-08-17T09:49:56.772Z,5.35
2022-08-17T09:52:28.853Z,5.38
2022-08-17T09:54:57.775Z,5.30
2022-08-17T09:57:59.934Z,6.55
2022-08-17T10:00:34.660Z,6.78
2022-08-17T10:03:16.203Z,8.25
2022-08-17T10:06:13.266Z,7.10
2022-08-17T10:08:51.874Z,8.50
2022-08-17T10:11:52.611Z,8.45
2022-08-17T10:14:36.785Z,7.45
2022-08-17T10:17:27.775Z,8.52
2022-08-17T10:20:10.668Z,9.02
2022-08-17T10:23:12.115Z,8.82
2022-08-17T10:26:08.682Z,8.43
2022-08-17T10:29:01.703Z,8.70
2022-08-17T10:31:51.533Z,9.15
2022-08-17T10:34:41.100Z,8.85
2022-08-17T10:37:25.300Z,9.98
2022-08-17T10:40:13.125Z,9.32
2022-08-17T10:45:29.496Z,10.27
2022-08-17T10:48:22.261Z,9.68
2022-08-17T10:50:58.164Z,10.52
2022-08-17T10:53:40.643Z,9.98
2022-08-17T10:56:41.956Z,10.23
2022-08-17T10:59:09.115Z,10.38
2022-08-17T11:01:37.855Z,9.77
2022-08-17T11:04:39.454Z,9.70
2022-08-17T11:07:36.293Z,9.75
2022-08-17T11:10:27.002Z,10.02
2022-08-17T11:13:23.141Z,10.30
2022-08-17T11:16:08.903Z,10.05
2022-08-17T11:18:54.468Z,10.30
2022-08-17T11:21:52.678Z,9.82
2022-08-17T11:24:28.224Z,10.00
2022-08-17T11:27:01.188Z,9.63
2022-08-17T11:29:49.449Z,9.60
2022-08-17T11:32:37.350Z,10.05
2022-08-17T11:35:12.001Z,10.18
2022-08-17T11:37:48.192Z,9.93
2022-08-17T11:40:41.361Z,10.10
2022-08-17T11:43:25.381Z,10.63
2022-08-17T11:46:16.899Z,10.90
2022-08-17T11:49:11.544Z,10.13
2022-08-17T11:52:09.211Z,10.90
2022-08-17T11:54:45.268Z,11.80
2022-08-17T11:57:27.365Z,12.32
2022-08-17T12:00:00.799Z,12.95
2022-08-17T12:02:34.884Z,13.88
2022-08-17T12:05:02.608Z,13.55
2022-08-17T12:07:32.344Z,14.55
2022-08-17T12:10:00.358Z,15.15
2022-08-17T12:12:32.764Z,15.52
2022-08-17T12:15:16.705Z,15.18
2022-08-17T12:17:53.499Z,14.93
2022-08-17T12:20:40.016Z,15.68
2022-08-17T12:23:15.336Z,16.45
2022-08-17T12:26:15.174Z,17.20
2022-08-17T12:28:46.509Z,16.75
2022-08-17T12:31:26.489Z,16.95
2022-08-17T12:33:54.087Z,17.52
2022-08-17T12:36:25.961Z,18.58
2022-08-17T12:38:59.507Z,18.42
2022-08-17T12:41:46.995Z,18.83
2022-08-17T12:44:18.864Z,19.10
2022-08-17T12:46:53.243Z,19.40
2022-08-17T12:49:24.542Z,19.58
2022-08-17T12:51:59.861Z,20.25
2022-08-17T12:54:31.937Z,20.65
2022-08-17T12:57:08.959Z,21.92
2022-08-17T12:59:42.005Z,21.50
2022-08-17T13:02:19.044Z,20.35
2022-08-17T13:04:47.057Z,20.75
2022-08-17T13:07:33.280Z,19.60
2022-08-17T13:10:00.092Z,20.55
2022-08-17T13:12:28.927Z,20.98
2022-08-17T13:14:57.516Z,20.02
2022-08-17T13:17:36.304Z,20.45
2022-08-17T13:20:06.356Z,19.70
2022-08-17T13:22:33.351Z,18.65
2022-08-17T13:25:05.338Z,18.35
2022-08-17T13:27:33.928Z,18.58
2022-08-17T13:30:07.076Z,17.27
2022-08-17T13:32:40.440Z,16.20
2022-08-17T13:35:50.497Z,16.27
2022-08-17T13:38:45.474Z,15.00
2022-08-17T13:41:33.592Z,13.85
2022-08-17T13:44:01.185Z,13.65
2022-08-17T13:46:33.390Z,14.10
2022-08-17T13:49:06.293Z,14.20
2022-08-17T13:51:45.400Z,14.02
2022-08-17T13:54:26.911Z,14.82
2022-08-17T13:56:57.742Z,14.05
2022-08-17T13:59:54.172Z,14.70
2022-08-17T14:02:27.513Z,13.98
2022-08-17T14:04:55.185Z,14.43
2022-08-17T14:07:36.398Z,15.10
2022-08-17T14:10:06.634Z,14.80
2022-08-17T14:12:34.925Z,15.60
2022-08-17T14:15:01.925Z,14.80
2022-08-17T14:17:34.948Z,15.88
2022-08-17T14:20:09.354Z,15.00
2022-08-17T14:22:40.050Z,15.13
2022-08-17T14:25:08.692Z,16.77
2022-08-17T14:27:51.998Z,16.00
2022-08-17T14:30:25.658Z,16.08
2022-08-17T14:32:54.512Z,15.85
2022-08-17T14:35:23.077Z,17.30
2022-08-17T14:37:51.460Z,16.60
2022-08-17T14:40:20.905Z,17.08
2022-08-17T14:42:48.199Z,17.05
2022-08-17T14:45:31.798Z,17.08
2022-08-17T14:48:01.067Z,16.65
2022-08-17T14:50:27.901Z,16.17
2022-08-17T14:52:58.072Z,16.52
2022-08-17T14:55:25.288Z,17.35
2022-08-17T14:57:52.373Z,18.50
2022-08-17T15:00:19.336Z,18.23
2022-08-17T15:02:55.491Z,17.83
2022-08-17T15:05:26.069Z,17.33
2022-08-17T15:07:53.952Z,19.10
2022-08-17T15:10:21.218Z,17.45
2022-08-17T15:12:48.175Z,18.17
2022-08-17T15:15:17.165Z,16.95
2022-08-17T15:17:45.896Z,17.05
2022-08-17T15:20:33.426Z,19.02
2022-08-17T15:23:00.195Z,17.58
2022-08-17T15:25:29.513Z,17.83
2022-08-17T15:27:56.580Z,17.70
2022-08-17T15:30:25.764Z,18.08
2022-08-17T15:32:55.081Z,17.90
2022-08-17T15:35:27.466Z,17.15
2022-08-17T15:37:56.728Z,16.75
2022-08-17T15:40:23.653Z,17.15
2022-08-17T15:42:51.106Z,21.50
2022-08-17T15:45:22.498Z,17.15
2022-08-17T15:47:49.441Z,17.80
2022-08-17T15:50:16.592Z,17.63
2022-08-17T15:52:44.921Z,18.63
2022-08-17T15:55:13.948Z,17.52
2022-08-17T15:57:40.961Z,16.80
2022-08-17T16:00:09.434Z,17.75
2022-08-17T16:03:44.866Z,17.92
2022-08-17T16:05:27.241Z,17.77
2022-08-17T16:07:55.853Z,17.67
2022-08-17T16:10:23.173Z,18.15
2022-08-17T16:13:01.944Z,19.25
2022-08-17T16:15:31.099Z,18.48
2022-08-17T16:17:57.859Z,18.67
2022-08-17T16:20:25.749Z,18.00
2022-08-17T16:22:53.114Z,18.13
2022-08-17T16:25:47.201Z,18.08
2022-08-17T16:28:16.206Z,17.23
2022-08-17T16:30:43.078Z,18.83
2022-08-17T16:33:15.017Z,18.33
2022-08-17T16:35:42.143Z,17.98
2022-08-17T16:38:09.479Z,16.27
2022-08-17T16:40:36.487Z,15.97
2022-08-17T16:43:03.701Z,14.57
2022-08-17T16:45:36.660Z,16.27
2022-08-17T16:48:04.416Z,16.50
2022-08-17T16:50:32.011Z,16.95
2022-08-17T16:53:10.533Z,17.55
2022-08-17T16:55:38.208Z,17.02
2022-08-17T16:58:06.198Z,17.33
2022-08-17T17:00:33.879Z,18.30
2022-08-17T17:03:20.521Z,19.27
2022-08-17T17:06:14.297Z,20.35
2022-08-17T17:08:51.098Z,19.75
2022-08-17T17:11:26.942Z,20.08
2022-08-17T17:13:59.976Z,21.60
2022-08-17T17:16:26.642Z,21.98
2022-08-17T17:19:12.370Z,23.63
2022-08-17T17:21:51.847Z,22.70
2022-08-17T17:24:58.964Z,23.77
2022-08-17T17:27:36.419Z,23.85
2022-08-17T17:30:16.075Z,22.90
2022-08-17T17:32:52.310Z,24.75
2022-08-17T17:35:25.642Z,24.50
2022-08-17T17:37:54.174Z,25.17
2022-08-17T17:40:31.882Z,24.63
2022-08-17T17:43:20.454Z,23.67
2022-08-17T17:45:53.484Z,25.17
2022-08-17T17:48:20.707Z,24.23
2022-08-17T17:51:13.018Z,25.93
2022-08-17T17:53:45.606Z,25.90
2022-08-17T17:56:44.225Z,26.50
2022-08-17T17:59:50.814Z,26.70
2022-08-17T18:02:44.804Z,25.80
2022-08-17T18:05:38.601Z,23.85
2022-08-17T18:08:14.096Z,24.52
2022-08-17T18:10:56.068Z,24.85
2022-08-17T18:13:32.591Z,26.13
2022-08-17T18:16:01.048Z,25.67
2022-08-17T18:18:39.252Z,25.45
2022-08-17T18:21:15.684Z,25.70
2022-08-17T18:24:00.345Z,25.83
2022-08-17T18:26:33.217Z,25.33
2022-08-17T18:29:01.647Z,26.15
2022-08-17T18:31:28.449Z,25.17
2022-08-17T18:34:45.954Z,25.60
2022-08-17T18:37:12.789Z,26.67
2022-08-17T18:39:42.995Z,26.13
2022-08-17T18:44:54.934Z,25.02
2022-08-17T18:47:23.769Z,25.55
2022-08-17T18:49:57.841Z,23.73
2022-08-17T18:52:33.208Z,23.02
2022-08-17T18:55:05.932Z,21.35
2022-08-17T18:57:34.876Z,21.60
2022-08-17T19:00:10.001Z,22.40
2022-08-17T19:02:53.559Z,22.02
2022-08-17T19:05:33.006Z,21.25
2022-08-17T19:08:33.629Z,21.30
2022-08-17T19:11:25.856Z,21.23
2022-08-17T19:14:02.661Z,20.80
2022-08-17T19:16:36.526Z,20.60
2022-08-17T19:19:14.280Z,20.88
2022-08-17T19:21:47.070Z,21.52
2022-08-17T19:24:29.994Z,21.45
2022-08-17T19:27:24.950Z,21.92
2022-08-17T19:30:08.391Z,21.35
2022-08-17T19:32:36.298Z,21.05
2022-08-17T19:35:05.851Z,21.10
2022-08-17T19:37:37.015Z,20.92
2022-08-17T19:40:52.245Z,20.73
2022-08-17T19:43:53.499Z,21.30
2022-08-17T19:46:35.942Z,21.30
2022-08-17T19:49:32.926Z,20.83
2022-08-17T19:52:22.154Z,20.83
2022-08-17T19:55:02.354Z,20.98
2022-08-17T19:57:50.626Z,20.92
2022-08-17T20:00:18.834Z,20.98
2022-08-17T20:06:15.080Z,20.80
2022-08-17T20:08:57.239Z,19.80
2022-08-17T20:11:45.640Z,20.77
2022-08-17T20:14:15.935Z,22.95
2022-08-17T20:16:44.169Z,21.65
2022-08-17T20:22:04.041Z,19.70
2022-08-17T20:24:52.670Z,19.35
2022-08-17T20:27:27.994Z,20.25
2022-08-17T20:30:04.545Z,18.48
2022-08-17T20:32:47.996Z,18.38
2022-08-17T20:35:28.311Z,17.63
2022-08-17T20:38:31.298Z,17.50
2022-08-17T20:41:01.139Z,17.20
2022-08-17T20:43:33.850Z,17.20
2022-08-17T20:46:37.258Z,16.23
2022-08-17T20:49:38.509Z,15.95
2022-08-17T20:52:10.273Z,16.38
2022-08-17T20:55:04.494Z,15.00
2022-08-17T20:57:31.509Z,16.27
2022-08-17T21:00:17.222Z,16.27
2022-08-17T21:02:50.870Z,14.98
2022-08-17T21:05:37.214Z,14.93
2022-08-17T21:08:13.092Z,15.33
2022-08-17T21:10:41.809Z,14.60
2022-08-17T21:13:10.139Z,14.68
2022-08-17T21:15:50.040Z,14.20
2022-08-17T21:18:32.995Z,15.18
2022-08-17T21:21:17.250Z,13.25
2022-08-17T21:24:22.208Z,13.35
2022-08-17T21:27:08.164Z,11.90
2022-08-17T21:29:50.380Z,10.90
2022-08-17T21:32:28.099Z,11.70
2022-08-17T21:35:06.811Z,10.73
2022-08-17T21:37:44.113Z,9.82
2022-08-17T21:40:10.895Z,10.35
2022-08-17T21:43:31.792Z,10.75
2022-08-17T21:46:04.202Z,9.55
2022-08-17T21:48:41.647Z,10.95
2022-08-17T21:51:12.166Z,9.90
2022-08-17T21:53:52.231Z,9.07
2022-08-17T21:56:40.627Z,9.60
2022-08-17T21:59:19.547Z,9.27
2022-08-17T22:01:59.244Z,9.20
2022-08-17T22:04:33.420Z,9.65
2022-08-17T22:07:05.342Z,9.52
2022-08-17T22:09:50.317Z,8.80
2022-08-17T22:12:18.830Z,9.27
2022-08-17T22:15:07.314Z,9.93
2022-08-17T22:17:45.195Z,9.50
2022-08-17T22:20:20.596Z,9.23
2022-08-17T22:23:08.890Z,9.35
2022-08-17T22:25:41.128Z,9.27
2022-08-17T22:28:10.727Z,9.27
2022-08-17T22:30:42.504Z,9.18
2022-08-17T22:33:27.967Z,9.15
2022-08-17T22:36:30.799Z,9.63
2022-08-17T22:39:23.045Z,9.40
2022-08-17T22:41:59.337Z,9.00
2022-08-17T22:44:37.737Z,8.82
2022-08-17T22:47:21.549Z,9.07
2022-08-17T22:50:01.287Z,9.18
2022-08-17T22:52:32.147Z,9.35
2022-08-17T22:55:26.654Z,9.35
2022-08-17T22:58:12.182Z,9.45
2022-08-17T23:00:43.213Z,9.23
2022-08-17T23:03:11.680Z,9.55
2022-08-17T23:05:42.908Z,9.23
2022-08-17T23:08:11.529Z,8.82
2022-08-17T23:10:41.239Z,9.27
2022-08-17T23:13:11.877Z,8.98
2022-08-17T23:15:40.959Z,9.50
2022-08-17T23:18:08.173Z,8.95
2022-08-17T23:20:40.246Z,9.25
2022-08-17T23:23:08.963Z,9.48
2022-08-17T23:25:36.170Z,9.30
2022-08-17T23:28:05.543Z,9.55
2022-08-17T23:30:35.796Z,9.98
2022-08-17T23:33:08.841Z,10.05
2022-08-17T23:35:39.575Z,9.98
2022-08-17T23:38:09.113Z,10.90
2022-08-17T23:43:11.458Z,10.13
2022-08-17T23:45:57.366Z,10.02
2022-08-17T23:48:35.133Z,10.75
2022-08-17T23:51:10.655Z,10.30
2022-08-17T23:53:46.284Z,10.23
2022-08-17T23:56:13.444Z,10.90
2022-08-17T23:58:42.752Z,10.10
